Time;durP1;ratioP1;P1;durP2;ratioP2;P2;SDS_P1;SDS_P2;PMS_P1;PMS_P2;Temp;Humidity;BMP_temperature;BMP_pressure;BME280_temperature;BME280_humidity;BME280_pressure;Samples;Min_cycle;Max_cycle;Signal;HPM_P1;HPM_P2
2022/10/25 00:01:36;;;;;;;8.00;4.07;;;;;;;12.78;100.00;100245.22;4880606;29;20445;-79
2022/10/25 00:04:03;;;;;;;5.40;4.20;;;;;;;12.73;100.00;100243.88;4894147;29;20144;-79
2022/10/25 00:06:29;;;;;;;8.20;4.68;;;;;;;12.69;100.00;100241.25;4879396;29;20384;-79
2022/10/25 00:08:56;;;;;;;10.68;4.70;;;;;;;12.69;100.00;100249.84;4878408;29;20100;-79
2022/10/25 00:11:24;;;;;;;10.93;5.03;;;;;;;12.71;100.00;100249.31;4863610;29;20076;-79
2022/10/25 00:13:53;;;;;;;8.82;3.90;;;;;;;12.65;100.00;100232.06;4879308;29;20387;-79
2022/10/25 00:16:22;;;;;;;11.30;4.30;;;;;;;12.65;100.00;100237.81;4879493;29;20045;-79
2022/10/25 00:18:47;;;;;;;8.18;4.65;;;;;;;12.63;100.00;100243.28;4863625;29;20368;-80
2022/10/25 00:21:13;;;;;;;8.40;5.18;;;;;;;12.61;100.00;100242.19;4879247;29;20500;-79
2022/10/25 00:23:39;;;;;;;9.38;5.25;;;;;;;12.62;100.00;100238.84;4880523;29;20482;-79
2022/10/25 00:26:07;;;;;;;5.68;4.10;;;;;;;12.62;100.00;100244.56;4880297;29;20131;-79
2022/10/25 00:28:33;;;;;;;5.20;4.22;;;;;;;12.47;100.00;100229.59;4879222;29;20041;-80
2022/10/25 00:31:05;;;;;;;7.88;5.25;;;;;;;12.55;100.00;100245.00;4880334;29;20029;-79
2022/10/25 00:33:36;;;;;;;8.68;5.20;;;;;;;12.51;100.00;100241.59;4880562;29;20033;-79
2022/10/25 00:36:07;;;;;;;9.32;4.53;;;;;;;12.43;100.00;100242.56;4879106;29;20040;-78
2022/10/25 00:38:33;;;;;;;6.18;5.25;;;;;;;12.41;100.00;100250.88;4880125;29;20033;-79
2022/10/25 00:41:00;;;;;;;9.48;5.07;;;;;;;12.37;100.00;100239.66;4894427;29;20102;-78
2022/10/25 00:43:46;;;;;;;9.65;4.97;;;;;;;12.34;100.00;100249.25;4878917;29;20060;-78
2022/10/25 00:46:22;;;;;;;6.35;4.82;;;;;;;12.28;100.00;100243.47;4894138;29;20044;-79
2022/10/25 00:48:52;;;;;;;7.72;5.38;;;;;;;12.22;100.00;100242.59;4880148;29;20048;-79
2022/10/25 00:51:30;;;;;;;7.55;5.07;;;;;;;12.20;100.00;100247.28;4878834;29;20486;-79
2022/10/25 00:53:57;;;;;;;9.70;5.95;;;;;;;12.16;100.00;100258.16;4879982;29;20542;-79
2022/10/25 00:56:30;;;;;;;7.47;5.88;;;;;;;12.10;100.00;100257.34;4878722;29;20048;-79
2022/10/25 00:58:58;;;;;;;10.43;6.10;;;;;;;12.05;100.00;100250.25;4878511;29;20086;-79
2022/10/25 01:01:25;;;;;;;8.38;5.82;;;;;;;12.01;100.00;100243.94;4877993;29;20044;-79
2022/10/25 01:03:53;;;;;;;10.10;6.43;;;;;;;11.97;100.00;100251.19;4877107;29;20037;-80
2022/10/25 01:06:44;;;;;;;8.38;6.30;;;;;;;11.95;100.00;100257.44;4862073;29;20048;-80
2022/10/25 01:09:16;;;;;;;9.27;7.60;;;;;;;11.92;100.00;100258.44;4878155;29;20037;-79
2022/10/25 01:11:42;;;;;;;8.77;6.30;;;;;;;11.72;100.00;100226.97;4860846;29;20647;-79
2022/10/25 01:14:17;;;;;;;9.80;6.38;;;;;;;11.86;100.00;100251.09;4878707;29;20033;-79
2022/10/25 01:16:55;;;;;;;8.27;6.05;;;;;;;11.84;100.00;100251.59;4892954;29;20029;-81
2022/10/25 01:19:57;;;;;;;9.80;7.28;;;;;;;11.80;100.00;100256.75;4878060;29;20045;-80
2022/10/25 01:22:48;;;;;;;9.43;6.50;;;;;;;11.76;100.00;100244.72;4869162;29;20048;-79
2022/10/25 01:25:51;;;;;;;10.88;6.10;;;;;;;11.74;100.00;100244.44;4878324;29;20033;-80
2022/10/25 01:28:32;;;;;;;9.02;6.40;;;;;;;11.55;100.00;100226.78;4877128;29;20051;-81
2022/10/25 01:31:29;;;;;;;10.63;6.35;;;;;;;11.64;100.00;100252.38;4863742;29;20033;-81
2022/10/25 01:34:54;;;;;;;9.05;6.50;;;;;;;11.59;100.00;100250.25;4881554;29;20037;-79
2022/10/25 01:38:01;;;;;;;7.25;5.80;;;;;;;11.56;100.00;100241.88;4824696;29;20046;-79
2022/10/25 01:40:45;;;;;;;9.32;6.30;;;;;;;11.52;100.00;100256.38;4800707;29;20475;-79
2022/10/25 01:43:16;;;;;;;7.00;5.47;;;;;;;11.51;100.00;100251.97;4825561;29;20039;-79
2022/10/25 01:45:54;;;;;;;9.53;5.53;;;;;;;11.52;100.00;100252.75;4825521;29;20030;-79
2022/10/25 01:48:29;;;;;;;6.43;5.57;;;;;;;11.49;100.00;100245.16;4844783;29;20501;-79
2022/10/25 01:50:56;;;;;;;7.57;5.47;;;;;;;11.47;100.00;100250.63;4881582;29;20033;-80
2022/10/25 01:53:21;;;;;;;10.82;5.50;;;;;;;11.38;100.00;100231.50;4881640;29;20029;-79
2022/10/25 01:55:56;;;;;;;8.65;6.15;;;;;;;11.50;100.00;100249.59;4879623;29;20131;-79
2022/10/25 01:58:45;;;;;;;11.45;6.35;;;;;;;11.48;100.00;100250.09;4896858;29;20044;-79
2022/10/25 02:01:43;;;;;;;8.98;6.13;;;;;;;11.46;100.00;100254.75;4882389;29;20040;-79
2022/10/25 02:04:24;;;;;;;10.25;6.97;;;;;;;11.44;100.00;100254.47;4881810;29;20053;-80
2022/10/25 02:07:26;;;;;;;10.00;6.40;;;;;;;11.42;100.00;100254.19;4881287;29;20033;-78
2022/10/25 02:10:07;;;;;;;8.77;5.53;;;;;;;11.41;100.00;100253.41;4881031;29;20041;-79
2022/10/25 02:13:03;;;;;;;9.60;6.27;;;;;;;11.42;100.00;100271.34;4894956;29;20490;-79
2022/10/25 02:16:00;;;;;;;9.77;6.20;;;;;;;11.40;100.00;100266.13;4880266;29;20029;-79
2022/10/25 02:18:30;;;;;;;8.43;5.30;;;;;;;11.38;100.00;100263.75;4881045;29;20097;-79
2022/10/25 02:21:15;;;;;;;12.15;5.50;;;;;;;11.28;100.00;100238.63;4879611;29;20486;-80
2022/10/25 02:23:43;;;;;;;13.13;5.95;;;;;;;11.38;100.00;100258.03;4879841;29;20025;-78
2022/10/25 02:26:09;;;;;;;9.88;6.00;;;;;;;11.36;100.00;100251.25;4865039;29;20060;-79
2022/10/25 02:28:37;;;;;;;8.02;5.60;;;;;;;11.38;100.00;100251.53;4879804;29;20044;-78
2022/10/25 02:31:03;;;;;;;9.70;6.15;;;;;;;11.34;100.00;100251.75;4879727;29;20033;-80
2022/10/25 02:33:29;;;;;;;9.10;5.68;;;;;;;11.34;100.00;100256.66;4876901;29;20045;-79
2022/10/25 02:36:15;;;;;;;9.80;5.90;;;;;;;11.32;100.00;100251.44;4880877;29;20027;-80
2022/10/25 02:38:41;;;;;;;9.45;6.10;;;;;;;11.17;100.00;100247.84;4879513;29;20040;-79
2022/10/25 02:41:07;;;;;;;8.27;5.00;;;;;;;11.29;100.00;100266.75;4863690;29;20055;-80
2022/10/25 02:43:32;;;;;;;11.45;5.72;;;;;;;11.26;100.00;100258.41;4863489;29;20105;-80
2022/10/25 02:46:02;;;;;;;10.13;6.82;;;;;;;11.26;100.00;100267.75;4877132;29;20026;-80
2022/10/25 02:48:30;;;;;;;9.13;6.43;;;;;;;11.21;100.00;100256.25;4830514;29;20177;-79
2022/10/25 02:50:56;;;;;;;7.80;5.57;;;;;;;11.24;100.00;100261.75;4861620;29;20064;-79
2022/10/25 02:53:21;;;;;;;9.60;5.93;;;;;;;11.24;100.00;100260.94;4855302;29;20073;-80
2022/10/25 02:56:08;;;;;;;8.93;5.95;;;;;;;11.09;100.00;100238.09;4844897;29;20090;-79
2022/10/25 02:58:36;;;;;;;9.70;5.65;;;;;;;11.26;100.00;100270.63;4861544;29;20054;-80
2022/10/25 03:01:05;;;;;;;10.18;5.85;;;;;;;11.29;100.00;100268.81;4860691;29;20121;-80
2022/10/25 03:03:31;;;;;;;11.38;6.22;;;;;;;11.33;100.00;100272.25;4861670;29;20097;-80
2022/10/25 03:05:56;;;;;;;11.45;6.30;;;;;;;11.35;100.00;100263.97;4860297;29;20492;-80
2022/10/25 03:08:27;;;;;;;10.43;6.05;;;;;;;11.44;100.00;100263.03;4861791;29;20033;-79
2022/10/25 03:11:15;;;;;;;7.20;5.35;;;;;;;11.52;100.00;100270.69;4861354;29;20066;-79
2022/10/25 03:13:46;;;;;;;8.10;5.63;;;;;;;11.60;100.00;100274.72;4861191;29;20554;-80
2022/10/25 03:16:13;;;;;;;9.70;5.93;;;;;;;11.67;100.00;100262.03;4859459;29;20074;-79
2022/10/25 03:18:39;;;;;;;8.95;5.53;;;;;;;11.75;100.00;100266.84;4860129;29;20030;-79
2022/10/25 03:21:07;;;;;;;6.82;5.45;;;;;;;11.81;100.00;100264.81;4861883;29;20566;-79
2022/10/25 03:23:34;;;;;;;11.15;5.78;;;;;;;11.89;100.00;100270.91;4845563;29;20034;-79
2022/10/25 03:26:00;;;;;;;11.35;5.40;;;;;;;11.94;100.00;100258.72;4861189;29;20683;-81
2022/10/25 03:28:27;;;;;;;9.10;5.50;;;;;;;11.97;100.00;100260.56;4844775;29;20037;-78
2022/10/25 03:30:53;;;;;;;7.55;4.85;;;;;;;11.96;100.00;100261.09;4860891;29;20063;-81
2022/10/25 03:33:35;;;;;;;7.50;4.95;;;;;;;11.82;100.00;100239.84;4859865;29;20029;-79
2022/10/25 03:36:03;;;;;;;8.52;5.40;;;;;;;11.87;100.00;100253.44;4861033;29;20081;-80
2022/10/25 03:38:28;;;;;;;10.98;5.68;;;;;;;11.82;100.00;100266.38;4860623;29;20033;-79
2022/10/25 03:40:55;;;;;;;8.95;5.57;;;;;;;11.77;100.00;100260.59;4862614;29;20467;-80
2022/10/25 03:43:29;;;;;;;6.85;5.13;;;;;;;11.75;100.00;100263.19;4860960;29;20033;-79
2022/10/25 03:45:57;;;;;;;7.60;5.40;;;;;;;11.69;100.00;100256.59;4862395;29;20034;-79
2022/10/25 03:48:23;;;;;;;9.15;5.40;;;;;;;11.51;100.00;100242.59;4861650;29;20037;-80
2022/10/25 03:50:49;;;;;;;7.32;5.63;;;;;;;11.60;100.00;100260.41;4859831;29;20505;-79
2022/10/25 03:53:14;;;;;;;6.15;5.45;;;;;;;11.57;100.00;100266.31;4860014;29;20050;-80
2022/10/25 03:55:41;;;;;;;9.20;6.25;;;;;;;11.52;100.00;100262.09;4859345;29;20390;-80
2022/10/25 03:58:13;;;;;;;10.13;5.65;;;;;;;11.48;100.00;100257.88;4860654;29;20025;-78
2022/10/25 04:00:38;;;;;;;17.50;6.25;;;;;;;11.40;100.00;100246.88;4860908;29;20142;-78
2022/10/25 04:03:03;;;;;;;9.25;6.22;;;;;;;11.39;100.00;100253.09;4844145;29;20120;-80
2022/10/25 04:05:29;;;;;;;10.38;6.50;;;;;;;11.34;100.00;100257.47;4859787;29;20064;-79
2022/10/25 04:07:55;;;;;;;12.90;6.25;;;;;;;11.22;100.00;100246.38;4859410;29;20493;-78
2022/10/25 04:10:22;;;;;;;8.77;6.05;;;;;;;11.24;100.00;100260.94;4861089;29;20021;-79
2022/10/25 04:12:51;;;;;;;8.52;6.68;;;;;;;11.23;100.00;100262.22;4861561;29;20042;-78
2022/10/25 04:15:18;;;;;;;11.38;6.88;;;;;;;11.24;100.00;100263.81;4860288;29;20066;-79
2022/10/25 04:17:47;;;;;;;9.63;6.18;;;;;;;11.21;100.00;100262.75;4861121;29;20462;-79
2022/10/25 04:20:14;;;;;;;9.68;6.50;;;;;;;11.21;100.00;100261.97;4861430;29;20065;-79
2022/10/25 04:22:40;;;;;;;7.95;5.90;;;;;;;11.22;100.00;100260.69;4860369;29;20026;-78
2022/10/25 04:25:09;;;;;;;8.07;6.65;;;;;;;11.23;100.00;100262.22;4861399;29;20029;-78
2022/10/25 04:27:36;;;;;;;14.32;6.10;;;;;;;11.17;100.00;100249.94;4861834;29;20029;-80
2022/10/25 04:30:04;;;;;;;10.38;6.60;;;;;;;11.22;100.00;100267.16;4861541;29;20453;-79
2022/10/25 04:32:30;;;;;;;9.07;6.38;;;;;;;11.23;100.00;100279.41;4861709;29;20029;-78
2022/10/25 04:34:56;;;;;;;7.47;6.03;;;;;;;11.21;100.00;100273.41;4860537;29;20032;-80
2022/10/25 04:37:28;;;;;;;9.88;5.95;;;;;;;11.24;100.00;100278.13;4860319;29;20078;-80
2022/10/25 04:39:56;;;;;;;7.50;5.68;;;;;;;11.21;100.00;100273.41;4861380;29;20129;-79
2022/10/25 04:42:21;;;;;;;8.85;6.32;;;;;;;11.10;100.00;100265.41;4861518;29;20064;-79
2022/10/25 04:44:46;;;;;;;12.35;6.45;;;;;;;11.22;100.00;100277.84;4858902;29;20080;-79
2022/10/25 04:47:15;;;;;;;7.63;6.55;;;;;;;11.15;100.00;100263.94;4844057;29;20053;-79
2022/10/25 04:49:40;;;;;;;6.40;5.80;;;;;;;11.19;100.00;100271.03;4861075;29;20194;-78
2022/10/25 04:52:07;;;;;;;7.70;5.65;;;;;;;11.30;100.00;100282.63;4859787;29;20109;-79
2022/10/25 04:54:33;;;;;;;7.32;6.35;;;;;;;11.32;100.00;100280.06;4861462;29;20025;-79
2022/10/25 04:57:07;;;;;;;10.35;6.20;;;;;;;11.35;100.00;100281.13;4860040;29;20034;-79
2022/10/25 04:59:33;;;;;;;9.27;5.95;;;;;;;11.36;100.00;100277.00;4861107;29;20037;-82
2022/10/25 05:02:00;;;;;;;8.65;6.03;;;;;;;11.38;100.00;100278.06;4844950;29;20383;-80
2022/10/25 05:04:25;;;;;;;12.27;6.18;;;;;;;11.37;100.00;100279.34;4860671;29;20056;-80
2022/10/25 05:06:51;;;;;;;7.65;6.40;;;;;;;11.40;100.00;100281.22;4864904;29;20029;-80
2022/10/25 05:09:17;;;;;;;7.40;5.78;;;;;;;11.41;100.00;100284.88;4863851;29;20041;-82
2022/10/25 05:11:43;;;;;;;13.43;6.13;;;;;;;11.35;100.00;100281.94;4863176;29;20407;-81
2022/10/25 05:14:09;;;;;;;7.63;6.80;;;;;;;11.40;100.00;100294.75;4848128;29;20029;-79
2022/10/25 05:16:34;;;;;;;9.77;6.78;;;;;;;11.40;100.00;100283.28;4863519;29;20060;-82
2022/10/25 05:19:02;;;;;;;6.35;5.75;;;;;;;11.42;100.00;100294.25;4876771;29;20554;-81
2022/10/25 05:21:29;;;;;;;9.20;6.40;;;;;;;11.46;100.00;100287.03;4863630;29;20026;-81
2022/10/25 05:24:15;;;;;;;10.48;6.43;;;;;;;11.51;100.00;100305.56;4863047;29;20399;-80
2022/10/25 05:26:44;;;;;;;8.57;6.05;;;;;;;11.54;100.00;100304.53;4877235;29;20069;-78
2022/10/25 05:29:11;;;;;;;10.52;5.80;;;;;;;11.59;100.00;100307.47;4847803;29;20072;-78
2022/10/25 05:31:44;;;;;;;9.98;5.97;;;;;;;11.63;100.00;100299.47;4862984;29;20045;-77
2022/10/25 05:34:11;;;;;;;10.32;6.45;;;;;;;11.66;100.00;100303.41;4864489;29;20033;-78
2022/10/25 05:36:36;;;;;;;7.85;5.85;;;;;;;11.69;100.00;100308.91;4863014;29;20037;-77
2022/10/25 05:39:03;;;;;;;8.02;6.60;;;;;;;11.68;100.00;100310.19;4878675;29;20032;-79
2022/10/25 05:41:28;;;;;;;7.40;6.50;;;;;;;11.72;100.00;100313.63;4863080;29;20029;-79
2022/10/25 05:43:54;;;;;;;11.25;6.90;;;;;;;11.59;100.00;100287.44;4862299;29;20040;-78
2022/10/25 05:46:21;;;;;;;42.38;10.68;;;;;;;11.74;100.00;100305.34;4862630;29;20081;-79
2022/10/25 05:48:47;;;;;;;18.23;8.43;;;;;;;11.77;100.00;100321.50;4846107;29;20035;-78
2022/10/25 05:51:20;;;;;;;13.95;7.50;;;;;;;11.82;100.00;100312.19;4863302;29;20044;-79
2022/10/25 05:53:59;;;;;;;11.60;7.05;;;;;;;11.87;100.00;100316.41;4862630;29;20030;-79
2022/10/25 05:56:27;;;;;;;28.95;8.98;;;;;;;11.90;100.00;100318.28;4861703;29;20116;-78
2022/10/25 05:59:00;;;;;;;52.47;12.98;;;;;;;11.78;100.00;100303.03;4863189;29;20045;-78
2022/10/25 06:01:28;;;;;;;64.63;15.57;;;;;;;11.96;100.00;100316.25;4863071;29;20108;-80
2022/10/25 06:03:55;;;;;;;33.40;10.10;;;;;;;12.06;100.00;100331.25;4862292;29;20061;-78
2022/10/25 06:06:21;;;;;;;36.67;10.10;;;;;;;12.09;100.00;100331.03;4862745;29;20033;-77
2022/10/25 06:08:47;;;;;;;23.85;8.95;;;;;;;12.13;100.00;100345.13;4847077;29;20037;-76
2022/10/25 06:11:17;;;;;;;12.43;6.95;;;;;;;12.21;100.00;100344.16;4863501;29;20088;-79
2022/10/25 06:13:46;;;;;;;24.92;8.45;;;;;;;12.22;100.00;100340.03;4863834;29;20037;-78
2022/10/25 06:16:27;;;;;;;22.23;9.35;;;;;;;12.30;100.00;100348.97;4862894;29;20030;-78
2022/10/25 06:19:01;;;;;;;27.35;8.52;;;;;;;12.28;100.00;100340.88;4863693;29;20037;-77
2022/10/25 06:21:28;;;;;;;36.38;11.82;;;;;;;12.38;100.00;100360.81;4862551;29;20379;-78
2022/10/25 06:23:58;;;;;;;50.75;12.55;;;;;;;12.42;100.00;100359.28;4863255;29;20056;-79
2022/10/25 06:26:27;;;;;;;42.85;12.10;;;;;;;12.34;100.00;100349.53;4862299;29;20159;-81
2022/10/25 06:28:55;;;;;;;35.28;10.40;;;;;;;12.42;100.00;100355.63;4869450;29;20028;-80
2022/10/25 06:31:22;;;;;;;14.45;7.88;;;;;;;12.48;100.00;100368.75;4882208;29;20458;-80
2022/10/25 06:33:47;;;;;;;14.05;8.43;;;;;;;12.48;100.00;100374.47;4880131;29;20045;-81
2022/10/25 06:36:18;;;;;;;10.45;7.07;;;;;;;12.46;100.00;100379.13;4881909;29;20036;-79
2022/10/25 06:38:48;;;;;;;13.85;7.35;;;;;;;12.36;100.00;100372.75;4899526;29;20115;-78
2022/10/25 06:41:17;;;;;;;12.93;8.50;;;;;;;12.30;100.00;100373.97;4888853;29;20040;-78
2022/10/25 06:43:43;;;;;;;22.95;10.25;;;;;;;12.30;100.00;100380.50;4881561;29;20541;-78
2022/10/25 06:46:26;;;;;;;17.27;9.05;;;;;;;12.33;100.00;100375.81;4881741;29;20033;-79
2022/10/25 06:48:58;;;;;;;79.88;15.35;;;;;;;12.31;100.00;100364.09;4880264;29;20033;-80
2022/10/25 06:51:25;;;;;;;92.70;17.17;;;;;;;12.40;100.00;100378.28;4879671;29;20045;-79
2022/10/25 06:53:55;;;;;;;79.47;15.48;;;;;;;12.28;100.00;100358.06;4881581;29;20025;-78
2022/10/25 06:56:22;;;;;;;109.82;16.77;;;;;;;12.54;100.00;100377.41;4881183;29;20054;-79
2022/10/25 06:58:47;;;;;;;17.67;8.05;;;;;;;12.62;100.00;100387.91;4880085;29;20386;-80
2022/10/25 07:01:14;;;;;;;48.70;11.07;;;;;;;12.69;100.00;100381.75;4880956;29;20032;-79
2022/10/25 07:03:41;;;;;;;62.20;13.80;;;;;;;12.86;100.00;100373.28;4879731;29;20031;-77
2022/10/25 07:06:08;;;;;;;27.48;9.45;;;;;;;13.04;100.00;100375.81;4846112;29;20114;-77
2022/10/25 07:08:51;;;;;;;43.20;10.60;;;;;;;13.29;100.00;100382.81;4861636;29;20368;-78
2022/10/25 07:11:18;;;;;;;33.90;8.63;;;;;;;13.54;100.00;100378.31;4861304;29;20368;-78
2022/10/25 07:13:44;;;;;;;50.60;11.52;;;;;;;13.91;100.00;100376.16;4860951;29;20064;-77
2022/10/25 07:16:12;;;;;;;130.77;19.50;;;;;;;14.17;100.00;100381.00;4862453;29;20432;-77
2022/10/25 07:18:38;;;;;;;23.08;7.78;;;;;;;14.39;100.00;100370.34;4845845;29;20030;-76
2022/10/25 07:21:10;;;;;;;15.38;6.70;;;;;;;14.72;100.00;100383.28;4862266;29;20471;-77
2022/10/25 07:23:40;;;;;;;20.23;7.47;;;;;;;14.96;100.00;100379.91;4862253;29;20030;-77
2022/10/25 07:26:10;;;;;;;15.35;6.88;;;;;;;14.98;100.00;100362.88;4862035;29;20102;-77
2022/10/25 07:28:37;;;;;;;17.00;7.68;;;;;;;15.11;100.00;100358.22;4860850;29;20029;-78
2022/10/25 07:31:07;;;;;;;13.43;5.95;;;;;;;15.23;100.00;100374.16;4862242;29;20093;-78
2022/10/25 07:33:38;;;;;;;14.02;6.03;;;;;;;15.48;100.00;100383.03;4861946;29;20486;-77
2022/10/25 07:36:03;;;;;;;19.45;7.55;;;;;;;15.53;100.00;100380.16;4861979;29;20029;-77
2022/10/25 07:38:30;;;;;;;21.35;7.43;;;;;;;15.79;100.00;100385.63;4860455;29;20041;-78
2022/10/25 07:40:57;;;;;;;84.20;15.27;;;;;;;15.92;100.00;100385.84;4861991;29;20118;-77
2022/10/25 07:43:26;;;;;;;43.30;11.43;;;;;;;16.00;100.00;100374.56;4860539;29;20448;-78
2022/10/25 07:45:53;;;;;;;28.92;7.22;;;;;;;16.01;100.00;100365.38;4860826;29;20041;-77
2022/10/25 07:48:21;;;;;;;21.73;6.00;;;;;;;16.20;100.00;100393.63;4860448;29;20072;-78
2022/10/25 07:50:46;;;;;;;13.82;5.35;;;;;;;16.23;100.00;100393.34;4861727;29;20037;-77
2022/10/25 07:53:11;;;;;;;30.55;6.60;;;;;;;16.23;100.00;100376.06;4860494;29;20032;-77
2022/10/25 07:55:38;;;;;;;11.20;5.60;;;;;;;16.37;100.00;100388.56;4861437;29;20026;-77
2022/10/25 07:58:05;;;;;;;20.38;8.38;;;;;;;16.44;100.00;100383.03;4861808;29;20037;-78
2022/10/25 08:00:33;;;;;;;18.92;6.13;;;;;;;16.68;100.00;100393.16;4845222;29;20037;-77
2022/10/25 08:02:59;;;;;;;77.13;12.30;;;;;;;16.91;100.00;100398.25;4845246;29;20037;-76
2022/10/25 08:05:27;;;;;;;55.88;9.43;;;;;;;16.97;100.00;100378.00;4874567;29;20053;-77
2022/10/25 08:07:57;;;;;;;45.83;9.63;;;;;;;17.28;100.00;100405.59;4880144;29;20104;-78
2022/10/25 08:10:27;;;;;;;83.72;11.90;;;;;;;17.44;100.00;100401.78;4880191;29;20124;-77
2022/10/25 08:12:54;;;;;;;36.45;8.32;;;;;;;17.50;100.00;100393.88;4863335;29;20486;-76
2022/10/25 08:15:27;;;;;;;21.48;5.63;;;;;;;17.48;100.00;100384.97;4880000;29;20063;-76
2022/10/25 08:17:59;;;;;;;18.88;5.47;;;;;;;17.63;100.00;100396.91;4880124;29;20115;-76
2022/10/25 08:20:26;;;;;;;12.45;5.10;;;;;;;17.77;100.00;100398.59;4887493;29;20024;-77
2022/10/25 08:22:57;;;;;;;25.25;5.38;;;;;;;17.82;100.00;100394.09;4897421;29;20020;-78
2022/10/25 08:25:30;;;;;;;17.90;4.90;;;;;;;17.80;100.00;100396.72;4898376;29;20028;-77
2022/10/25 08:27:55;;;;;;;25.05;8.50;;;;;;;17.76;100.00;100411.50;4897386;29;20024;-77
2022/10/25 08:30:21;;;;;;;12.15;5.10;;;;;;;17.82;100.00;100400.66;4884787;29;20036;-78
2022/10/25 08:32:48;;;;;;;13.48;4.80;;;;;;;17.72;100.00;100405.22;4879723;29;20081;-79
2022/10/25 08:35:14;;;;;;;9.48;4.38;;;;;;;17.80;100.00;100399.63;4878492;29;20087;-78
2022/10/25 08:37:39;;;;;;;15.75;5.57;;;;;;;17.94;100.00;100401.31;4877414;29;20025;-77
2022/10/25 08:40:06;;;;;;;10.85;4.38;;;;;;;18.10;100.00;100396.66;4878072;29;20033;-77
2022/10/25 08:43:02;;;;;;;22.27;6.75;;;;;;;18.26;100.00;100399.38;4878079;29;20029;-76
2022/10/25 08:45:36;;;;;;;23.17;5.53;;;;;;;18.08;100.00;100396.44;4869428;29;20093;-77
2022/10/25 08:48:03;;;;;;;18.10;5.05;;;;;;;18.18;100.00;100403.38;4862656;29;20036;-77
2022/10/25 08:50:37;;;;;;;12.70;4.22;;;;;;;18.21;100.00;100397.31;4862549;29;20383;-76
2022/10/25 08:53:08;;;;;;;11.93;3.90;;;;;;;18.31;100.00;100403.53;4879610;29;20390;-77
2022/10/25 08:55:43;;;;;;;12.43;4.82;;;;;;;18.37;100.00;100401.38;4878480;29;20108;-78
2022/10/25 08:58:32;;;;;;;8.88;4.10;;;;;;;18.27;100.00;100398.03;4862854;29;20048;-76
2022/10/25 09:01:01;;;;;;;10.10;4.40;;;;;;;18.34;100.00;100402.44;4878130;29;20037;-77
2022/10/25 09:03:27;;;;;;;8.68;3.38;;;;;;;18.33;100.00;100406.66;4878072;29;20032;-77
2022/10/25 09:06:01;;;;;;;14.25;3.85;;;;;;;18.28;100.00;100414.06;4877770;29;20049;-76
2022/10/25 09:08:46;;;;;;;7.32;3.30;;;;;;;18.18;100.00;100406.28;4878099;29;20029;-77
2022/10/25 09:11:32;;;;;;;8.45;3.58;;;;;;;17.93;100.00;100399.72;4877976;29;20045;-75
2022/10/25 09:14:19;;;;;;;8.68;3.75;;;;;;;17.72;100.00;100393.66;4879538;29;20037;-77
2022/10/25 09:16:50;;;;;;;6.70;2.80;;;;;;;17.78;100.00;100408.81;4862876;29;20072;-76
2022/10/25 09:19:38;;;;;;;4.50;2.33;;;;;;;17.73;100.00;100409.66;4879014;29;20085;-76
2022/10/25 09:22:13;;;;;;;6.30;2.65;;;;;;;17.56;100.00;100405.38;4878466;29;20041;-77
2022/10/25 09:25:24;;;;;;;5.38;2.67;;;;;;;17.48;100.00;100413.09;4878959;29;20033;-76
2022/10/25 09:28:08;;;;;;;6.47;3.00;;;;;;;17.33;100.00;100416.31;4870647;29;20530;-76
2022/10/25 09:30:43;;;;;;;11.25;2.92;;;;;;;17.12;100.00;100418.84;4878388;29;20037;-77
2022/10/25 09:33:31;;;;;;;5.25;3.15;;;;;;;17.17;100.00;100423.00;4879676;29;20061;-77
2022/10/25 09:35:58;;;;;;;8.98;2.35;;;;;;;17.28;100.00;100425.81;4876055;29;20029;-79
2022/10/25 09:38:49;;;;;;;6.57;2.78;;;;;;;17.30;100.00;100426.06;4862570;29;20037;-77
2022/10/25 09:41:19;;;;;;;7.88;2.65;;;;;;;17.37;100.00;100422.59;4879131;29;20550;-79
2022/10/25 09:44:06;;;;;;;7.20;2.83;;;;;;;17.60;100.00;100424.00;4877848;29;20494;-80
2022/10/25 09:47:21;;;;;;;5.53;2.33;;;;;;;17.89;100.00;100419.50;4862679;29;20021;-77
2022/10/25 09:50:11;;;;;;;8.80;2.33;;;;;;;17.99;100.00;100405.47;4835897;29;20398;-77
2022/10/25 09:53:10;;;;;;;6.10;2.70;;;;;;;18.18;100.00;100426.53;4882375;29;20120;-76
2022/10/25 09:55:40;;;;;;;3.92;1.95;;;;;;;18.09;100.00;100430.59;4882728;29;20036;-76
2022/10/25 09:58:24;;;;;;;4.85;2.55;;;;;;;18.00;100.00;100428.06;4882380;29;20416;-76
2022/10/25 10:00:51;;;;;;;8.10;2.20;;;;;;;17.81;100.00;100430.88;4866207;29;20102;-76
2022/10/25 10:03:17;;;;;;;7.15;2.17;;;;;;;17.63;100.00;100425.81;4866038;29;20059;-77
2022/10/25 10:05:55;;;;;;;3.55;1.60;;;;;;;17.26;100.00;100422.69;4881059;29;20045;-78
2022/10/25 10:08:21;;;;;;;3.63;1.85;;;;;;;17.00;100.00;100428.91;4880864;29;20490;-77
2022/10/25 10:10:47;;;;;;;4.63;1.90;;;;;;;16.80;100.00;100430.06;4880853;29;20137;-77
2022/10/25 10:13:27;;;;;;;6.18;2.05;;;;;;;16.66;100.00;100425.44;4880740;29;20029;-78
2022/10/25 10:15:57;;;;;;;3.53;1.50;;;;;;;16.44;100.00;100416.88;4882442;29;20106;-77
2022/10/25 10:18:24;;;;;;;4.85;1.80;;;;;;;16.33;100.00;100417.69;4882611;29;20285;-77
2022/10/25 10:20:59;;;;;;;4.20;2.25;;;;;;;16.31;100.00;100413.75;4881127;29;20040;-77
2022/10/25 10:23:30;;;;;;;10.88;1.70;;;;;;;16.28;100.00;100432.91;4882216;29;20081;-77
2022/10/25 10:26:00;;;;;;;13.93;3.70;;;;;;;16.23;100.00;100419.31;4882445;29;20029;-77
2022/10/25 10:28:28;;;;;;;6.32;2.30;;;;;;;16.21;100.00;100419.03;4881536;29;20415;-77
2022/10/25 10:30:57;;;;;;;6.80;1.80;;;;;;;16.10;100.00;100417.00;4882728;29;20104;-77
2022/10/25 10:33:29;;;;;;;8.95;2.58;;;;;;;16.02;100.00;100415.97;4882313;29;20029;-77
2022/10/25 10:35:55;;;;;;;5.50;2.47;;;;;;;15.95;100.00;100413.63;4881036;29;20041;-77
2022/10/25 10:38:26;;;;;;;2.90;1.60;;;;;;;15.84;100.00;100419.41;4882368;29;20029;-79
2022/10/25 10:40:55;;;;;;;4.63;1.90;;;;;;;15.87;100.00;100421.22;4880465;29;20037;-77
2022/10/25 10:43:26;;;;;;;3.33;1.42;;;;;;;15.95;100.00;100421.50;4865525;29;20410;-77
2022/10/25 10:45:52;;;;;;;5.90;1.88;;;;;;;15.99;100.00;100419.13;4880747;29;20033;-78
2022/10/25 10:48:20;;;;;;;7.78;2.03;;;;;;;16.06;100.00;100425.13;4880880;29;20587;-81
2022/10/25 10:50:49;;;;;;;7.05;2.17;;;;;;;16.16;100.00;100425.59;4882889;29;20033;-84
2022/10/25 10:53:28;;;;;;;12.02;2.13;;;;;;;16.24;100.00;100423.75;4880879;29;20043;-79
2022/10/25 10:55:55;;;;;;;3.63;1.48;;;;;;;16.25;100.00;100425.34;4881936;29;20029;-86
2022/10/25 10:58:28;;;;;;;2.65;1.38;;;;;;;16.29;100.00;100428.72;4865357;29;20037;-83
2022/10/25 11:00:58;;;;;;;6.68;1.55;;;;;;;16.34;100.00;100430.03;4881329;29;20037;-79
2022/10/25 11:03:45;;;;;;;5.70;1.67;;;;;;;16.43;100.00;100424.72;4880019;29;20479;-80
2022/10/25 11:06:22;;;;;;;6.25;1.70;;;;;;;16.63;100.00;100432.28;4881380;29;20049;-79
2022/10/25 11:08:48;;;;;;;3.88;1.60;;;;;;;16.89;100.00;100431.88;4880513;29;20033;-80
2022/10/25 11:11:13;;;;;;;8.05;1.45;;;;;;;17.18;100.00;100434.03;4864188;29;20037;-82
2022/10/25 11:13:54;;;;;;;9.32;1.90;;;;;;;17.39;100.00;100434.38;4881646;29;20037;-81
2022/10/25 11:16:34;;;;;;;6.32;1.70;;;;;;;17.49;100.00;100429.84;4881404;29;20029;-81
2022/10/25 11:19:09;;;;;;;5.70;2.00;;;;;;;17.52;100.00;100437.47;4881101;29;20088;-83
2022/10/25 11:21:53;;;;;;;6.10;1.45;;;;;;;17.53;100.00;100432.47;4881395;29;20355;-82
2022/10/25 11:24:44;;;;;;;5.38;2.25;;;;;;;17.44;100.00;100436.47;4880203;29;20175;-86
2022/10/25 11:27:29;;;;;;;6.25;1.75;;;;;;;17.28;100.00;100446.03;4882204;29;20044;-84
2022/10/25 11:30:03;;;;;;;4.50;1.67;;;;;;;17.05;100.00;100430.97;4882788;29;20037;-84
2022/10/25 11:32:39;;;;;;;8.07;1.95;;;;;;;17.03;100.00;100436.50;4882014;29;20035;-84
2022/10/25 11:35:34;;;;;;;5.35;1.83;;;;;;;16.97;100.00;100439.44;4883085;29;20025;-84